Terminal Aerodrome Forecast
Issued by NWS Wakefield, VA

Home | Current Version | Previous Version | Text Only | Print | Product List | Glossary On
Versions: 1 2 3 4 5 6 7 8 9 10 11 12 13
545
FTUS41 KAKQ 251739
TAFORF
TAF
KORF 251739Z 2518/2618 19012G20KT P6SM SCT040 SCT200
     FM252200 20015G25KT 4SM -SHRA VCTS OVC040CB
     FM260000 29018G30KT P6SM BKN040
     FM260200 30015G25KT P6SM SCT080
     FM261200 31009KT P6SM SKC=

USA.gov is the U.S. government's official web portal to all federal, state and local government web resources and services.